Time;durP1;ratioP1;P1;durP2;ratioP2;P2;SDS_P1;SDS_P2;PMS_P1;PMS_P2;Temp;Humidity;BMP_temperature;BMP_pressure;BME280_temperature;BME280_humidity;BME280_pressure;Samples;Min_cycle;Max_cycle;Signal;HPM_P1;HPM_P2
2023/06/09 00:00:38;;;;;;;17.10;6.40;;;;;;;20.92;43.97;100414.47;123329;1102;104695;-78
2023/06/09 00:03:31;;;;;;;15.33;6.57;;;;;;;20.92;43.28;100418.93;123384;1102;104226;-77
2023/06/09 00:06:03;;;;;;;13.10;6.50;;;;;;;20.93;44.16;100420.71;123363;1102;104254;-79
2023/06/09 00:08:34;;;;;;;17.17;6.93;;;;;;;20.90;44.13;100412.73;123533;1102;104328;-79
2023/06/09 00:11:05;;;;;;;19.77;7.80;;;;;;;20.89;44.30;100413.63;123510;1102;104393;-77
2023/06/09 00:13:36;;;;;;;19.23;8.77;;;;;;;20.89;44.42;100414.50;123553;1102;104283;-78
2023/06/09 00:16:08;;;;;;;23.15;8.70;;;;;;;20.88;44.74;100404.75;123489;1102;104348;-79
2023/06/09 00:18:41;;;;;;;23.23;9.50;;;;;;;20.86;44.65;100400.31;123612;1102;104345;-79
2023/06/09 00:21:17;;;;;;;19.98;8.78;;;;;;;20.87;44.69;100404.76;123317;1101;104174;-77
2023/06/09 00:23:49;;;;;;;22.80;9.70;;;;;;;20.86;44.63;100402.98;123235;1100;104396;-76
2023/06/09 00:26:20;;;;;;;25.33;9.57;;;;;;;20.84;45.42;100394.98;123537;1102;104350;-78
2023/06/09 00:28:52;;;;;;;20.63;9.27;;;;;;;20.81;45.58;100398.55;123287;1101;104325;-78
2023/06/09 00:31:23;;;;;;;23.20;9.03;;;;;;;20.81;44.90;100397.68;123265;1102;104226;-77
2023/06/09 00:33:55;;;;;;;23.73;9.20;;;;;;;20.80;46.01;100398.56;123180;1102;104325;-76
2023/06/09 00:36:26;;;;;;;19.27;8.03;;;;;;;20.78;45.82;100395.91;123562;1102;104440;-77
2023/06/09 00:38:57;;;;;;;14.07;7.00;;;;;;;20.79;45.82;100392.36;123334;1102;104268;-77
2023/06/09 00:41:28;;;;;;;15.30;6.00;;;;;;;20.77;45.97;100390.59;123234;1102;104246;-77
2023/06/09 00:43:59;;;;;;;15.07;6.30;;;;;;;20.76;44.83;100394.17;123298;1102;104226;-76
2023/06/09 00:46:31;;;;;;;16.70;6.50;;;;;;;20.73;44.75;100389.74;123319;1102;104258;-77
2023/06/09 00:49:03;;;;;;;20.10;7.50;;;;;;;20.71;45.16;100382.64;123726;1102;104229;-77
2023/06/09 00:51:37;;;;;;;16.27;7.23;;;;;;;20.66;46.33;100390.67;123547;1102;104245;-78
2023/06/09 00:54:10;;;;;;;20.57;7.43;;;;;;;20.61;45.44;100388.00;123566;1100;104223;-77
2023/06/09 00:56:47;;;;;;;19.10;7.85;;;;;;;20.54;45.75;100385.42;123477;1102;104380;-78
2023/06/09 00:59:18;;;;;;;16.50;7.60;;;;;;;20.53;46.56;100391.64;123366;1102;104303;-77
2023/06/09 01:01:50;;;;;;;19.80;7.37;;;;;;;20.47;46.14;100388.13;123318;1102;104306;-77
2023/06/09 01:04:21;;;;;;;23.03;8.30;;;;;;;20.42;45.99;100392.59;123672;1102;104313;-78
2023/06/09 01:07:08;;;;;;;27.13;9.13;;;;;;;20.37;46.21;100382.87;123295;1102;104329;-78
2023/06/09 01:09:44;;;;;;;22.30;9.47;;;;;;;20.33;46.48;100389.98;123496;1102;104255;-78
2023/06/09 01:12:23;;;;;;;25.83;11.27;;;;;;;20.29;47.02;100386.45;123355;1102;104251;-76
2023/06/09 01:14:59;;;;;;;38.23;13.80;;;;;;;20.30;46.48;100390.00;123416;1102;104370;-76
2023/06/09 01:17:33;;;;;;;36.53;16.73;;;;;;;20.25;46.05;100379.36;123381;1102;104663;-77
2023/06/09 01:20:08;;;;;;;43.53;18.10;;;;;;;20.23;46.30;100382.95;123329;1102;104256;-77
2023/06/09 01:22:59;;;;;;;39.00;18.40;;;;;;;20.21;46.98;100379.39;123359;1102;104395;-76
2023/06/09 01:25:34;;;;;;;40.97;18.27;;;;;;;20.21;47.10;100388.29;123241;1102;104319;-76
2023/06/09 01:28:12;;;;;;;43.17;19.50;;;;;;;20.20;47.06;100381.19;123336;1102;104682;-77
2023/06/09 01:30:46;;;;;;;46.33;21.27;;;;;;;20.21;47.19;100382.97;123423;1102;104414;-77
2023/06/09 01:33:20;;;;;;;41.30;18.70;;;;;;;20.21;46.51;100379.39;123395;1102;104293;-77
2023/06/09 01:35:53;;;;;;;38.00;17.90;;;;;;;20.20;47.10;100374.98;123308;1101;104245;-77
2023/06/09 01:38:25;;;;;;;40.03;17.17;;;;;;;20.18;47.56;100374.98;123258;1102;104418;-78
2023/06/09 01:40:56;;;;;;;44.25;18.15;;;;;;;20.18;47.32;100372.33;123482;1100;104441;-78
2023/06/09 01:43:27;;;;;;;45.63;20.33;;;;;;;20.18;48.02;100368.75;123281;1102;104315;-77
2023/06/09 01:45:59;;;;;;;51.60;21.40;;;;;;;20.16;47.64;100368.77;123392;1101;104336;-77
2023/06/09 01:48:47;;;;;;;49.50;21.50;;;;;;;20.15;46.97;100372.34;123231;1102;104350;-77
2023/06/09 01:51:25;;;;;;;46.03;20.67;;;;;;;20.10;47.68;100369.70;123300;1102;104476;-76
2023/06/09 01:54:01;;;;;;;47.97;22.67;;;;;;;20.09;47.24;100375.91;123272;1100;104408;-77
2023/06/09 01:56:37;;;;;;;50.37;22.27;;;;;;;20.04;47.34;100367.07;123237;1101;104348;-76
2023/06/09 01:59:12;;;;;;;48.90;21.77;;;;;;;19.99;47.65;100363.55;123548;1102;104666;-76
2023/06/09 02:01:48;;;;;;;46.67;22.10;;;;;;;19.96;47.68;100366.23;123821;1102;104303;-78
2023/06/09 02:04:22;;;;;;;48.87;22.10;;;;;;;19.97;47.24;100361.78;123402;1102;104328;-77
2023/06/09 02:06:55;;;;;;;45.77;22.27;;;;;;;19.97;47.31;100359.99;123373;1102;104364;-77
2023/06/09 02:09:27;;;;;;;45.17;19.83;;;;;;;19.97;47.49;100362.66;123307;1102;104491;-77
2023/06/09 02:11:59;;;;;;;29.70;13.80;;;;;;;19.98;47.62;100366.23;123774;1102;104272;-77
2023/06/09 02:14:35;;;;;;;27.53;11.47;;;;;;;19.99;48.30;100365.31;123357;1102;104268;-75
2023/06/09 02:17:08;;;;;;;22.22;10.55;;;;;;;19.98;48.45;100375.09;123189;1102;104319;-76
2023/06/09 02:19:41;;;;;;;21.13;10.30;;;;;;;20.00;48.45;100375.08;123191;1102;104328;-76
2023/06/09 02:22:12;;;;;;;26.67;10.60;;;;;;;19.97;48.24;100380.42;123638;1102;104370;-76
2023/06/09 02:24:44;;;;;;;23.27;10.97;;;;;;;19.93;48.41;100376.91;123322;1102;104306;-76
2023/06/09 02:27:15;;;;;;;25.40;11.07;;;;;;;19.89;48.55;100383.13;123212;1102;104293;-76
2023/06/09 02:29:47;;;;;;;24.23;11.07;;;;;;;19.85;49.41;100387.58;123105;1102;104309;-76
2023/06/09 02:32:18;;;;;;;24.97;11.20;;;;;;;19.84;49.28;100379.60;123128;1102;104402;-75
2023/06/09 02:34:49;;;;;;;22.25;9.80;;;;;;;19.79;49.19;100390.27;123284;1102;104374;-77
2023/06/09 02:37:20;;;;;;;21.40;9.13;;;;;;;19.80;49.60;100386.69;123263;1102;104350;-77
2023/06/09 02:39:51;;;;;;;18.50;8.30;;;;;;;19.80;49.83;100393.81;123337;1100;104251;-78
2023/06/09 02:42:22;;;;;;;20.20;7.73;;;;;;;19.75;49.45;100384.02;123234;1102;104299;-77
2023/06/09 02:44:54;;;;;;;23.35;8.10;;;;;;;19.70;49.83;100383.16;123180;1102;104405;-76
2023/06/09 02:47:25;;;;;;;21.23;8.17;;;;;;;19.68;49.89;100382.29;123384;1102;104348;-77
2023/06/09 02:49:56;;;;;;;21.30;8.47;;;;;;;19.65;49.46;100379.64;123332;1102;104318;-77
2023/06/09 02:52:29;;;;;;;28.33;10.67;;;;;;;19.63;50.12;100378.73;123321;1102;104268;-78
2023/06/09 02:55:00;;;;;;;24.87;10.40;;;;;;;19.66;49.85;100384.05;123386;1102;104309;-79
2023/06/09 02:57:31;;;;;;;21.53;9.07;;;;;;;19.74;49.56;100381.36;123394;1102;104354;-77
2023/06/09 03:00:04;;;;;;;29.27;9.63;;;;;;;19.81;50.18;100379.61;123322;1102;104272;-76
2023/06/09 03:02:37;;;;;;;22.77;9.00;;;;;;;19.83;49.94;100381.36;123366;1101;104274;-76
2023/06/09 03:05:10;;;;;;;19.70;10.00;;;;;;;19.85;50.29;100379.59;123577;1102;104261;-77
2023/06/09 03:07:40;;;;;;;;;;;;;;;19.85;49.25;100381.35;123347;1102;104251;-76
2023/06/09 03:10:12;;;;;;;20.93;8.77;;;;;;;19.87;50.39;100380.47;123612;1102;104364;-79
2023/06/09 03:12:45;;;;;;;20.45;8.60;;;;;;;19.90;50.89;100379.58;123694;1102;104353;-77
2023/06/09 03:15:17;;;;;;;22.00;8.35;;;;;;;19.92;50.60;100391.97;123363;1102;104328;-77
2023/06/09 03:17:49;;;;;;;21.40;7.90;;;;;;;19.98;50.88;100403.51;123300;1102;104464;-76
2023/06/09 03:20:22;;;;;;;17.57;7.33;;;;;;;20.00;50.09;100389.27;123356;1100;104268;-77
2023/06/09 03:22:54;;;;;;;20.57;8.07;;;;;;;19.99;51.05;100395.52;123218;1102;104406;-76
2023/06/09 03:25:27;;;;;;;14.97;7.60;;;;;;;20.01;50.31;100391.05;123318;1102;104328;-77
2023/06/09 03:28:01;;;;;;;16.47;7.53;;;;;;;20.00;50.57;100397.27;123344;1102;104364;-77
2023/06/09 03:30:33;;;;;;;15.57;7.10;;;;;;;19.98;51.05;100400.84;123387;1102;104280;-77
2023/06/09 03:33:05;;;;;;;19.97;7.17;;;;;;;19.96;50.12;100394.62;123402;1102;104867;-76
2023/06/09 03:35:37;;;;;;;18.40;7.30;;;;;;;19.94;50.88;100405.28;123282;1102;104479;-76
2023/06/09 03:38:08;;;;;;;18.40;7.50;;;;;;;19.89;50.78;100397.31;123325;1102;104169;-78
2023/06/09 03:40:40;;;;;;;18.20;7.57;;;;;;;19.88;50.89;100402.64;123293;1102;104302;-77
2023/06/09 03:43:12;;;;;;;18.47;7.70;;;;;;;19.88;50.96;100405.30;123520;1102;104220;-77
2023/06/09 03:45:43;;;;;;;17.43;7.43;;;;;;;19.92;51.06;100412.40;123382;1102;104284;-78
2023/06/09 03:48:16;;;;;;;16.77;7.70;;;;;;;19.97;50.46;100407.92;123310;1102;104275;-77
2023/06/09 03:50:48;;;;;;;19.87;8.27;;;;;;;20.01;50.10;100406.16;123436;1102;104223;-77
2023/06/09 03:53:20;;;;;;;19.33;7.67;;;;;;;20.03;50.40;100407.03;123748;1102;104258;-79
2023/06/09 03:55:51;;;;;;;19.93;7.97;;;;;;;20.01;50.52;100414.15;123752;1102;104709;-79
2023/06/09 03:58:22;;;;;;;17.30;8.00;;;;;;;20.00;50.07;100418.56;124064;1102;104302;-79
2023/06/09 04:00:54;;;;;;;18.97;9.43;;;;;;;20.00;50.26;100415.91;123630;1102;104267;-78
2023/06/09 04:03:26;;;;;;;21.13;8.83;;;;;;;20.00;51.18;100421.23;123680;1102;104364;-79
2023/06/09 04:05:57;;;;;;;20.30;8.80;;;;;;;20.02;50.30;100424.77;123593;1102;104408;-79
2023/06/09 04:08:29;;;;;;;21.43;9.00;;;;;;;20.06;50.63;100425.66;123854;1102;104285;-80
2023/06/09 04:11:01;;;;;;;20.57;9.20;;;;;;;20.08;50.70;100422.08;123588;1102;104293;-76
2023/06/09 04:13:32;;;;;;;23.47;9.53;;;;;;;20.13;50.77;100427.37;123666;1102;104368;-76
2023/06/09 04:16:03;;;;;;;19.10;8.05;;;;;;;20.16;51.06;100416.71;123526;1102;104350;-75
2023/06/09 04:18:35;;;;;;;19.70;8.20;;;;;;;20.23;50.64;100423.80;123308;1102;104296;-75
2023/06/09 04:21:08;;;;;;;17.33;7.37;;;;;;;20.27;50.58;100420.23;123731;1102;104364;-75
2023/06/09 04:23:40;;;;;;;19.60;7.10;;;;;;;20.30;50.31;100411.31;124003;1102;102998;-76
2023/06/09 04:26:13;;;;;;;18.73;6.80;;;;;;;20.35;50.72;100419.28;123403;1102;104294;-76
2023/06/09 04:28:45;;;;;;;17.43;6.80;;;;;;;20.39;50.16;100418.38;123338;1102;104415;-76
2023/06/09 04:31:18;;;;;;;16.47;6.23;;;;;;;20.43;49.25;100420.14;123323;1102;104277;-75
2023/06/09 04:33:51;;;;;;;17.57;6.60;;;;;;;20.46;49.47;100421.00;123427;1102;104315;-77
2023/06/09 04:36:22;;;;;;;12.93;6.10;;;;;;;20.49;49.89;100425.44;123499;1102;104245;-75
2023/06/09 04:38:54;;;;;;;14.03;6.13;;;;;;;20.53;48.97;100426.29;123753;1102;104214;-77
2023/06/09 04:41:27;;;;;;;13.55;6.60;;;;;;;20.60;48.91;100417.34;123582;1102;104357;-77
2023/06/09 04:44:03;;;;;;;13.17;6.40;;;;;;;20.68;48.63;100419.98;123587;1102;104194;-75
2023/06/09 04:46:37;;;;;;;16.10;6.40;;;;;;;20.71;48.43;100411.97;123531;1102;104223;-76
2023/06/09 04:49:12;;;;;;;16.20;6.80;;;;;;;20.72;48.00;100413.75;123862;1102;104230;-76
2023/06/09 04:51:48;;;;;;;15.70;6.80;;;;;;;20.75;48.89;100422.59;124126;1102;104389;-79
2023/06/09 04:54:25;;;;;;;18.43;6.70;;;;;;;20.78;48.68;100417.24;124374;1102;104261;-81
2023/06/09 04:56:58;;;;;;;15.40;7.03;;;;;;;20.82;47.83;100418.12;124171;1102;104446;-82
2023/06/09 04:59:31;;;;;;;19.80;6.65;;;;;;;20.86;48.63;100419.85;124207;1102;104219;-80
2023/06/09 05:02:03;;;;;;;16.37;7.13;;;;;;;20.90;48.65;100415.41;124265;1102;104427;-78
2023/06/09 05:04:34;;;;;;;15.40;6.73;;;;;;;20.95;47.87;100421.57;124144;1101;104415;-82
2023/06/09 05:07:06;;;;;;;13.20;6.30;;;;;;;21.02;47.75;100420.63;124203;1102;103572;-76
2023/06/09 05:09:38;;;;;;;17.63;7.27;;;;;;;21.09;48.57;100416.99;124544;1102;104322;-80
2023/06/09 05:12:11;;;;;;;18.30;7.43;;;;;;;21.15;48.53;100416.06;124278;1102;104302;-80
2023/06/09 05:14:44;;;;;;;17.77;6.50;;;;;;;21.23;47.53;100424.00;124503;1102;102012;-83
2023/06/09 05:17:15;;;;;;;15.68;6.53;;;;;;;21.32;47.78;100418.58;125035;1102;104171;-79
2023/06/09 05:19:47;;;;;;;15.40;6.65;;;;;;;21.43;47.39;100418.47;124185;1102;104281;-80
2023/06/09 05:22:19;;;;;;;16.03;6.40;;;;;;;21.50;48.02;100418.42;124354;1102;104291;-83
2023/06/09 05:24:57;;;;;;;14.10;6.80;;;;;;;21.64;46.97;100420.05;124567;1102;104245;-81
2023/06/09 05:27:29;;;;;;;14.50;6.83;;;;;;;21.70;47.05;100414.64;124686;1102;103979;-80
2023/06/09 05:30:01;;;;;;;16.67;6.63;;;;;;;21.73;47.40;100415.47;124903;1102;104299;-79
2023/06/09 05:32:33;;;;;;;15.10;7.20;;;;;;;21.82;46.51;100413.63;124713;1100;104242;-78
2023/06/09 05:35:08;;;;;;;16.27;7.10;;;;;;;21.89;47.41;100409.95;124615;1102;104229;-82
2023/06/09 05:37:51;;;;;;;15.53;7.17;;;;;;;21.94;46.85;100407.22;124851;1102;104204;-82
2023/06/09 05:40:24;;;;;;;13.00;6.75;;;;;;;22.03;46.77;100410.69;124993;1102;102468;-79
2023/06/09 05:42:57;;;;;;;15.40;7.13;;;;;;;22.13;46.50;100416.78;124622;1100;104271;-81
2023/06/09 05:45:31;;;;;;;21.63;7.27;;;;;;;22.18;46.39;100417.59;124715;1102;104182;-80
2023/06/09 05:48:03;;;;;;;17.17;6.83;;;;;;;22.25;45.95;100423.73;124667;1102;103269;-81
2023/06/09 05:50:40;;;;;;;14.43;6.80;;;;;;;22.30;46.69;100419.27;124626;1102;102700;-82
2023/06/09 05:53:11;;;;;;;19.85;7.40;;;;;;;22.38;46.07;100412.02;124842;1102;104086;-84
2023/06/09 05:55:45;;;;;;;19.80;7.57;;;;;;;22.46;46.48;100419.05;124844;1102;102148;-80
2023/06/09 05:58:18;;;;;;;18.03;7.93;;;;;;;22.53;45.80;100416.27;124879;1101;104245;-82
2023/06/09 06:00:50;;;;;;;14.43;6.90;;;;;;;22.58;46.12;100417.06;124953;1102;102119;-82
2023/06/09 06:03:22;;;;;;;18.20;6.93;;;;;;;22.67;45.90;100424.05;124776;1102;104386;-82
2023/06/09 06:05:54;;;;;;;15.83;7.00;;;;;;;22.74;45.31;100412.36;124938;1102;104229;-81
2023/06/09 06:08:28;;;;;;;22.37;8.07;;;;;;;22.82;45.34;100406.88;125047;1102;104485;-80
2023/06/09 06:10:59;;;;;;;21.37;8.00;;;;;;;22.86;45.13;100411.28;124637;1102;104255;-80
2023/06/09 06:13:33;;;;;;;15.27;7.60;;;;;;;22.95;45.21;100410.23;124709;1102;103558;-81
2023/06/09 06:16:05;;;;;;;;;;;;;;;23.00;44.64;100413.73;124872;1102;104274;-85
2023/06/09 06:18:36;;;;;;;13.67;6.37;;;;;;;23.05;44.52;100405.63;124923;1102;104331;-77
2023/06/09 06:21:32;;;;;;;15.63;6.00;;;;;;;23.09;44.62;100399.33;124905;1102;104514;-81
2023/06/09 06:24:13;;;;;;;14.73;6.27;;;;;;;23.21;44.12;100400.92;125376;1102;104284;-82
2023/06/09 06:26:49;;;;;;;14.75;6.05;;;;;;;23.29;43.99;100397.17;125501;1100;101865;-80
2023/06/09 06:29:25;;;;;;;12.87;5.60;;;;;;;23.31;43.01;100398.05;124641;1102;104194;-78
2023/06/09 06:32:04;;;;;;;16.77;6.13;;;;;;;23.33;43.33;100406.92;124988;1102;104326;-82
2023/06/09 06:34:43;;;;;;;10.50;5.13;;;;;;;23.40;43.05;100398.78;125593;1101;104190;-85
2023/06/09 06:37:18;;;;;;;13.63;5.90;;;;;;;23.44;43.11;100403.17;125531;1102;102035;-84
2023/06/09 06:40:05;;;;;;;10.33;4.83;;;;;;;23.50;42.77;100403.93;125495;1102;104136;-83
2023/06/09 06:42:56;;;;;;;12.50;5.00;;;;;;;23.58;42.32;100406.46;125673;1101;102810;-82
2023/06/09 06:45:35;;;;;;;11.27;4.53;;;;;;;23.65;41.84;100405.44;124818;1101;118157;-82
2023/06/09 06:48:07;;;;;;;10.83;4.47;;;;;;;23.73;41.71;100410.61;124840;1102;104163;-81
2023/06/09 06:50:47;;;;;;;9.57;4.70;;;;;;;23.84;41.64;100392.58;125493;1102;102180;-84
2023/06/09 06:53:19;;;;;;;10.80;4.70;;;;;;;23.99;41.39;100393.16;125626;1102;104185;-84
2023/06/09 06:55:53;;;;;;;7.83;4.40;;;;;;;24.10;40.84;100398.30;125360;1102;102664;-80
2023/06/09 06:58:27;;;;;;;8.83;4.60;;;;;;;24.20;40.87;100398.06;125437;1102;104134;-83
2023/06/09 07:01:04;;;;;;;10.93;4.70;;;;;;;24.35;40.86;100399.48;124583;1102;104367;-82
2023/06/09 07:03:39;;;;;;;19.63;5.00;;;;;;;24.52;40.71;100398.23;125572;1102;104274;-80
2023/06/09 07:06:38;;;;;;;12.27;5.00;;;;;;;24.70;40.79;100391.59;124944;1102;111680;-84
2023/06/09 07:09:19;;;;;;;10.73;4.30;;;;;;;24.88;40.39;100396.47;125194;1102;104204;-82
2023/06/09 07:12:17;;;;;;;8.70;4.20;;;;;;;25.04;40.04;100391.62;124621;1102;104235;-80
2023/06/09 07:15:41;;;;;;;8.63;3.90;;;;;;;25.20;39.05;100385.84;124790;1102;104409;-80
2023/06/09 07:18:39;;;;;;;9.53;3.40;;;;;;;25.52;38.43;100401.09;125144;1105;104227;-84
2023/06/09 07:21:36;;;;;;;7.10;3.47;;;;;;;25.79;38.81;100404.82;124762;1102;104269;-83
2023/06/09 07:24:31;;;;;;;8.57;3.53;;;;;;;26.01;38.21;100393.47;125276;1102;104220;-81
2023/06/09 07:27:09;;;;;;;10.93;3.97;;;;;;;26.18;37.73;100391.15;124683;1102;118484;-81
2023/06/09 07:29:43;;;;;;;7.40;3.60;;;;;;;26.39;37.24;100402.16;124228;1102;104437;-78
2023/06/09 07:32:15;;;;;;;10.50;4.07;;;;;;;26.49;36.58;100398.26;124160;1102;102716;-77
2023/06/09 07:34:50;;;;;;;6.83;3.60;;;;;;;26.59;36.45;100390.77;124432;1102;104249;-80
2023/06/09 07:37:26;;;;;;;8.35;3.72;;;;;;;26.75;36.13;100383.09;124341;1102;104230;-80
2023/06/09 07:39:58;;;;;;;10.60;3.40;;;;;;;26.92;36.37;100382.53;124404;1102;104166;-80
2023/06/09 07:42:29;;;;;;;9.90;4.00;;;;;;;27.13;36.43;100385.41;124431;1102;104431;-79
2023/06/09 07:45:01;;;;;;;7.10;3.60;;;;;;;27.34;36.42;100383.82;124564;1102;104197;-81
2023/06/09 07:47:40;;;;;;;9.43;3.70;;;;;;;27.37;35.30;100381.02;124361;1102;110919;-78
2023/06/09 07:50:12;;;;;;;8.67;3.53;;;;;;;27.53;35.24;100379.50;124639;1102;104347;-82
2023/06/09 07:52:47;;;;;;;8.13;3.67;;;;;;;27.71;34.71;100377.09;124289;1102;104248;-78
2023/06/09 07:55:27;;;;;;;7.50;3.87;;;;;;;27.92;34.54;100375.38;124233;1102;104169;-81
2023/06/09 07:58:05;;;;;;;9.00;3.77;;;;;;;28.00;34.44;100372.42;124537;1102;102772;-80
2023/06/09 08:00:39;;;;;;;7.20;3.63;;;;;;;28.00;33.68;100375.12;124701;1102;104357;-81
2023/06/09 08:03:17;;;;;;;9.95;3.90;;;;;;;28.05;33.68;100384.80;124902;1102;104178;-77
2023/06/09 08:05:52;;;;;;;10.20;3.90;;;;;;;28.20;33.49;100377.04;124515;1102;102883;-80
2023/06/09 08:08:25;;;;;;;10.30;3.63;;;;;;;28.27;33.39;100382.13;124717;1102;107017;-78
2023/06/09 08:10:59;;;;;;;8.45;3.50;;;;;;;28.44;32.96;100377.89;124519;1102;104386;-81
2023/06/09 08:13:31;;;;;;;9.67;3.93;;;;;;;28.57;33.09;100378.27;124550;1102;104176;-77
2023/06/09 08:16:19;;;;;;;10.07;3.53;;;;;;;28.51;32.35;100382.08;124965;1102;102721;-81
2023/06/09 08:18:50;;;;;;;7.17;3.80;;;;;;;28.67;32.07;100377.86;124698;1100;119056;-81
2023/06/09 08:21:27;;;;;;;13.87;3.80;;;;;;;28.89;32.17;100378.75;124645;1102;102910;-82
2023/06/09 08:24:04;;;;;;;9.07;3.30;;;;;;;28.90;31.62;100375.98;124856;1102;104274;-82
2023/06/09 08:26:36;;;;;;;9.50;3.50;;;;;;;28.86;31.10;100369.85;125977;1101;102592;-82
2023/06/09 08:29:08;;;;;;;10.13;3.97;;;;;;;28.94;31.30;100377.62;124639;1102;103317;-81
2023/06/09 08:31:40;;;;;;;12.53;3.80;;;;;;;29.04;31.42;100384.38;125092;1100;104150;-83
2023/06/09 08:34:14;;;;;;;9.80;3.73;;;;;;;29.13;31.10;100368.73;124724;1102;104166;-83
2023/06/09 08:36:49;;;;;;;7.07;3.40;;;;;;;29.16;30.25;100361.36;125461;1102;102293;-83
2023/06/09 08:39:26;;;;;;;14.23;4.30;;;;;;;29.24;30.33;100366.47;124744;1102;110857;-80
2023/06/09 08:42:06;;;;;;;10.13;3.70;;;;;;;29.21;28.86;100359.36;124679;1102;104217;-79
2023/06/09 08:44:40;;;;;;;9.17;3.60;;;;;;;29.16;30.17;100366.77;124819;1102;102644;-81
2023/06/09 08:47:18;;;;;;;8.90;3.33;;;;;;;29.42;30.06;100374.69;124861;1102;103621;-81
2023/06/09 08:49:58;;;;;;;11.33;3.73;;;;;;;29.59;30.05;100380.20;125588;1101;102203;-80
2023/06/09 08:52:45;;;;;;;9.70;3.70;;;;;;;29.63;29.91;100376.43;125525;1102;104200;-82
2023/06/09 08:55:35;;;;;;;;;;;;;;;;;;;;;
2023/06/09 08:58:12;;;;;;;7.03;3.67;;;;;;;29.64;29.44;100370.08;125155;1102;104444;-80
2023/06/09 09:00:48;;;;;;;6.83;3.37;;;;;;;29.71;29.54;100360.72;125480;1102;104357;-83
2023/06/09 09:03:22;;;;;;;10.53;4.10;;;;;;;29.79;29.43;100362.20;125702;1102;104182;-81
2023/06/09 09:06:02;;;;;;;5.73;3.57;;;;;;;29.88;28.98;100362.67;125556;1102;104283;-82
2023/06/09 09:08:34;;;;;;;6.67;3.33;;;;;;;29.79;28.35;100365.78;125606;1102;102057;-83
2023/06/09 09:11:08;;;;;;;8.70;3.67;;;;;;;29.62;28.94;100358.44;125547;1101;103010;-81
2023/06/09 09:13:41;;;;;;;7.20;3.53;;;;;;;29.48;29.16;100358.20;124674;1102;104275;-81
2023/06/09 09:16:15;;;;;;;7.20;3.57;;;;;;;29.54;28.80;100355.22;124669;1102;104219;-81
2023/06/09 09:18:52;;;;;;;7.63;3.50;;;;;;;29.68;28.60;100358.16;124681;1102;102109;-80
2023/06/09 09:21:25;;;;;;;6.80;3.60;;;;;;;29.87;28.64;100351.93;125120;1103;102402;-78
2023/06/09 09:24:04;;;;;;;8.03;3.23;;;;;;;29.94;28.47;100345.30;124658;1102;102012;-79
2023/06/09 09:26:38;;;;;;;8.80;3.73;;;;;;;29.97;28.23;100338.87;124686;1102;103636;-82
2023/06/09 09:29:11;;;;;;;7.07;3.60;;;;;;;29.96;28.23;100339.81;125629;1102;102470;-80
2023/06/09 09:31:45;;;;;;;13.03;3.67;;;;;;;29.87;28.20;100342.02;125510;1102;101885;-84
2023/06/09 09:34:23;;;;;;;7.57;3.57;;;;;;;29.66;27.86;100348.39;125737;1102;102044;-81
2023/06/09 09:37:00;;;;;;;5.83;3.70;;;;;;;29.38;28.24;100334.30;125690;1102;102287;-83
2023/06/09 09:39:35;;;;;;;11.27;3.80;;;;;;;29.35;28.28;100334.43;125267;1102;104364;-82
2023/06/09 09:42:10;;;;;;;5.80;3.40;;;;;;;29.33;28.12;100336.34;125662;1102;104243;-82
2023/06/09 09:44:46;;;;;;;10.90;3.80;;;;;;;29.33;27.89;100321.95;125457;1102;104094;-83
2023/06/09 09:47:19;;;;;;;8.73;3.73;;;;;;;29.49;27.97;100314.02;126329;1100;102043;-81
2023/06/09 09:50:10;;;;;;;11.40;3.53;;;;;;;29.66;28.00;100314.11;126305;1100;102216;-81
2023/06/09 09:52:43;;;;;;;10.08;3.60;;;;;;;29.73;28.13;100317.39;125658;1102;102096;-86
2023/06/09 09:55:21;;;;;;;8.93;3.60;;;;;;;29.80;27.30;100315.33;125581;1102;104396;-82
2023/06/09 09:58:02;;;;;;;8.03;3.80;;;;;;;29.81;27.68;100314.36;125611;1102;103069;-82
2023/06/09 10:00:35;;;;;;;7.67;3.40;;;;;;;29.85;27.57;100313.27;125535;1102;102234;-82
2023/06/09 10:03:14;;;;;;;5.60;3.33;;;;;;;29.81;27.71;100319.77;125611;1101;102559;-80
2023/06/09 10:05:49;;;;;;;6.00;3.10;;;;;;;29.73;27.77;100307.47;124977;1101;102911;-84
2023/06/09 10:08:32;;;;;;;7.63;3.70;;;;;;;29.43;27.76;100307.06;125589;1102;104366;-84
2023/06/09 10:11:05;;;;;;;6.80;3.40;;;;;;;29.34;27.96;100304.77;125535;1102;113070;-83
2023/06/09 10:13:41;;;;;;;8.97;4.00;;;;;;;29.34;28.01;100305.67;125857;1102;103697;-81
2023/06/09 10:16:13;;;;;;;9.40;3.80;;;;;;;29.11;27.53;100305.77;125313;1102;103125;-80
2023/06/09 10:18:46;;;;;;;8.17;3.73;;;;;;;29.19;27.73;100309.03;125194;1100;103216;-81
2023/06/09 10:21:19;;;;;;;8.70;3.80;;;;;;;29.32;27.68;100301.27;125152;1101;104182;-78
2023/06/09 10:23:53;;;;;;;7.15;3.83;;;;;;;29.35;27.79;100291.20;124959;1102;102808;-79
2023/06/09 10:26:25;;;;;;;7.67;3.50;;;;;;;29.60;27.56;100295.47;125125;1101;103004;-78
2023/06/09 10:29:00;;;;;;;8.60;3.83;;;;;;;29.66;27.16;100278.95;125140;1102;104205;-77
2023/06/09 10:31:36;;;;;;;8.73;3.80;;;;;;;29.68;27.76;100293.27;125135;1102;108345;-82
2023/06/09 10:34:17;;;;;;;9.27;3.70;;;;;;;29.76;28.01;100285.70;125112;1102;104118;-80
2023/06/09 10:36:57;;;;;;;8.17;3.80;;;;;;;29.91;27.68;100283.23;126120;1102;102771;-80
2023/06/09 10:39:44;;;;;;;6.50;3.83;;;;;;;29.75;27.43;100280.36;125101;1102;103296;-78
2023/06/09 10:45:14;;;;;;;7.60;3.87;;;;;;;29.61;27.04;100270.20;124944;1102;104281;-81
2023/06/09 10:48:11;;;;;;;7.25;3.85;;;;;;;29.57;27.24;100266.73;125008;1102;102391;-81
2023/06/09 10:51:42;;;;;;;10.27;3.90;;;;;;;29.63;27.16;100262.88;125645;1102;103381;-81
2023/06/09 10:54:38;;;;;;;7.97;3.80;;;;;;;29.92;27.18;100256.11;125839;1102;101740;-79
2023/06/09 10:57:43;;;;;;;7.43;3.90;;;;;;;30.12;27.08;100248.83;125848;1102;103794;-77
2023/06/09 11:00:49;;;;;;;8.37;3.87;;;;;;;30.14;27.02;100241.53;125298;1102;103036;-83
2023/06/09 11:03:33;;;;;;;6.03;3.72;;;;;;;30.09;26.68;100240.86;125786;1102;102195;-79
2023/06/09 11:06:04;;;;;;;;;;;;;;;30.07;26.60;100242.77;124887;1102;104175;-79
2023/06/09 11:09:12;;;;;;;7.03;3.43;;;;;;;30.22;26.74;100236.59;124867;1101;104202;-80
2023/06/09 11:11:57;;;;;;;7.77;3.70;;;;;;;30.27;26.65;100236.37;124846;1102;103714;-77
2023/06/09 11:19:07;;;;;;;;;;;;;;;;;;;;;
2023/06/09 11:21:39;;;;;;;11.80;3.70;;;;;;;29.92;26.54;100220.09;125627;1102;102978;-80
2023/06/09 11:24:12;;;;;;;6.20;3.80;;;;;;;29.89;26.59;100217.53;124939;1102;103341;-82
2023/06/09 11:26:47;;;;;;;8.17;3.83;;;;;;;29.92;26.86;100212.84;124865;1102;104250;-80
2023/06/09 11:29:22;;;;;;;8.37;3.87;;;;;;;29.97;26.81;100206.33;124871;1102;104373;-83
2023/06/09 11:31:54;;;;;;;9.17;3.67;;;;;;;29.97;26.62;100204.50;125650;1102;104118;-85
2023/06/09 11:34:55;;;;;;;7.53;3.77;;;;;;;30.00;26.61;100198.94;125717;1102;103041;-83
2023/06/09 11:37:37;;;;;;;6.33;3.47;;;;;;;30.04;26.87;100192.39;126269;1101;102720;-81
2023/06/09 11:40:12;;;;;;;6.37;3.80;;;;;;;30.03;26.44;100190.66;126186;1102;102815;-83
2023/06/09 11:42:46;;;;;;;6.60;3.70;;;;;;;29.98;26.46;100184.62;125677;1100;103075;-82
2023/06/09 11:45:17;;;;;;;8.10;3.83;;;;;;;29.97;26.35;100193.67;124913;1102;104168;-83
2023/06/09 11:47:49;;;;;;;8.80;3.37;;;;;;;29.93;26.43;100187.55;124773;1102;103350;-81
2023/06/09 11:50:24;;;;;;;9.23;3.73;;;;;;;29.93;26.40;100189.36;124905;1102;104172;-82
2023/06/09 11:53:04;;;;;;;9.13;4.00;;;;;;;29.93;25.92;100186.66;124648;1103;102383;-79